sensor_id;sensor_type;location;lat;lon;timestamp;temperature;humidity
6174;DHT22;3120;48.796;9.796;2023-02-01T00:01:54;4.20;99.90
6174;DHT22;3120;48.796;9.796;2023-02-01T00:04:19;4.20;99.90
6174;DHT22;3120;48.796;9.796;2023-02-01T00:06:45;4.30;99.90
6174;DHT22;3120;48.796;9.796;2023-02-01T00:09:11;4.30;99.90
6174;DHT22;3120;48.796;9.796;2023-02-01T00:11:36;4.30;99.90
6174;DHT22;3120;48.796;9.796;2023-02-01T00:14:02;4.30;99.90
6174;DHT22;3120;48.796;9.796;2023-02-01T00:16:30;4.40;99.90
6174;DHT22;3120;48.796;9.796;2023-02-01T00:19:05;4.40;99.90
6174;DHT22;3120;48.796;9.796;2023-02-01T00:21:31;4.40;99.90
6174;DHT22;3120;48.796;9.796;2023-02-01T00:23:58;5.90;99.90
6174;DHT22;3120;48.796;9.796;2023-02-01T00:26:40;4.40;99.90
6174;DHT22;3120;48.796;9.796;2023-02-01T00:29:10;4.40;99.90
6174;DHT22;3120;48.796;9.796;2023-02-01T00:31:36;4.40;99.90
6174;DHT22;3120;48.796;9.796;2023-02-01T00:34:02;4.40;99.90
6174;DHT22;3120;48.796;9.796;2023-02-01T00:36:28;4.40;99.90
6174;DHT22;3120;48.796;9.796;2023-02-01T00:38:54;4.40;99.90
6174;DHT22;3120;48.796;9.796;2023-02-01T00:41:21;4.50;99.90
6174;DHT22;3120;48.796;9.796;2023-02-01T00:43:48;4.50;99.90
6174;DHT22;3120;48.796;9.796;2023-02-01T00:46:15;4.50;99.90
6174;DHT22;3120;48.796;9.796;2023-02-01T00:48:41;4.40;99.90
6174;DHT22;3120;48.796;9.796;2023-02-01T00:51:10;4.50;99.90
6174;DHT22;3120;48.796;9.796;2023-02-01T00:53:36;4.40;99.90
6174;DHT22;3120;48.796;9.796;2023-02-01T00:56:02;4.50;99.90
6174;DHT22;3120;48.796;9.796;2023-02-01T00:58:28;4.50;99.90
6174;DHT22;3120;48.796;9.796;2023-02-01T01:01:05;4.40;99.90
6174;DHT22;3120;48.796;9.796;2023-02-01T01:03:32;4.40;99.90
6174;DHT22;3120;48.796;9.796;2023-02-01T01:06:03;4.40;99.90
6174;DHT22;3120;48.796;9.796;2023-02-01T01:08:29;4.40;99.90
6174;DHT22;3120;48.796;9.796;2023-02-01T01:10:55;4.40;99.90
6174;DHT22;3120;48.796;9.796;2023-02-01T01:13:21;4.40;99.90
6174;DHT22;3120;48.796;9.796;2023-02-01T01:15:47;4.40;99.90
6174;DHT22;3120;48.796;9.796;2023-02-01T01:18:12;4.40;99.90
6174;DHT22;3120;48.796;9.796;2023-02-01T01:20:40;4.30;99.90
6174;DHT22;3120;48.796;9.796;2023-02-01T01:23:06;4.30;99.90
6174;DHT22;3120;48.796;9.796;2023-02-01T01:25:36;4.30;99.90
6174;DHT22;3120;48.796;9.796;2023-02-01T01:28:01;4.30;99.90
6174;DHT22;3120;48.796;9.796;2023-02-01T01:30:27;4.30;99.90
6174;DHT22;3120;48.796;9.796;2023-02-01T01:32:53;4.30;99.90
6174;DHT22;3120;48.796;9.796;2023-02-01T01:35:18;4.30;99.90
6174;DHT22;3120;48.796;9.796;2023-02-01T01:37:44;4.40;99.90
6174;DHT22;3120;48.796;9.796;2023-02-01T01:40:10;4.30;99.90
6174;DHT22;3120;48.796;9.796;2023-02-01T01:42:43;4.30;99.90
6174;DHT22;3120;48.796;9.796;2023-02-01T01:45:25;4.30;99.90
6174;DHT22;3120;48.796;9.796;2023-02-01T01:47:58;2.80;99.90
6174;DHT22;3120;48.796;9.796;2023-02-01T01:50:27;5.40;99.90
6174;DHT22;3120;48.796;9.796;2023-02-01T01:52:55;4.20;99.90
6174;DHT22;3120;48.796;9.796;2023-02-01T01:55:22;4.30;99.90
6174;DHT22;3120;48.796;9.796;2023-02-01T01:57:55;5.90;99.90
6174;DHT22;3120;48.796;9.796;2023-02-01T02:00:22;4.30;99.90
6174;DHT22;3120;48.796;9.796;2023-02-01T02:02:53;4.20;99.90
6174;DHT22;3120;48.796;9.796;2023-02-01T02:05:19;4.20;99.90
6174;DHT22;3120;48.796;9.796;2023-02-01T02:07:47;4.30;99.90
6174;DHT22;3120;48.796;9.796;2023-02-01T02:10:14;4.30;99.90
6174;DHT22;3120;48.796;9.796;2023-02-01T02:12:42;4.30;99.90
6174;DHT22;3120;48.796;9.796;2023-02-01T02:15:10;4.30;99.90
6174;DHT22;3120;48.796;9.796;2023-02-01T02:20:22;4.30;99.90
6174;DHT22;3120;48.796;9.796;2023-02-01T02:36:42;4.40;99.90
6174;DHT22;3120;48.796;9.796;2023-02-01T02:39:22;4.40;99.90
6174;DHT22;3120;48.796;9.796;2023-02-01T02:54:05;4.50;99.90
6174;DHT22;3120;48.796;9.796;2023-02-01T02:56:50;4.50;99.90
6174;DHT22;3120;48.796;9.796;2023-02-01T02:59:35;4.50;99.90
6174;DHT22;3120;48.796;9.796;2023-02-01T03:02:21;4.40;99.90
6174;DHT22;3120;48.796;9.796;2023-02-01T03:05:06;4.50;99.90
6174;DHT22;3120;48.796;9.796;2023-02-01T03:13:13;4.60;99.90
6174;DHT22;3120;48.796;9.796;2023-02-01T03:16:07;4.60;99.90
6174;DHT22;3120;48.796;9.796;2023-02-01T03:21:24;4.50;99.90
6174;DHT22;3120;48.796;9.796;2023-02-01T03:23:53;4.60;99.90
6174;DHT22;3120;48.796;9.796;2023-02-01T03:26:22;4.50;99.90
6174;DHT22;3120;48.796;9.796;2023-02-01T03:28:57;4.50;99.90
6174;DHT22;3120;48.796;9.796;2023-02-01T03:31:27;4.60;99.90
6174;DHT22;3120;48.796;9.796;2023-02-01T03:33:53;4.60;99.90
6174;DHT22;3120;48.796;9.796;2023-02-01T03:36:35;5.50;99.90
6174;DHT22;3120;48.796;9.796;2023-02-01T03:39:14;4.60;99.90
6174;DHT22;3120;48.796;9.796;2023-02-01T03:41:53;4.50;99.90
6174;DHT22;3120;48.796;9.796;2023-02-01T03:44:29;4.50;99.90
6174;DHT22;3120;48.796;9.796;2023-02-01T03:47:22;4.60;99.90
6174;DHT22;3120;48.796;9.796;2023-02-01T03:50:02;4.50;99.90
6174;DHT22;3120;48.796;9.796;2023-02-01T03:52:37;4.50;99.90
6174;DHT22;3120;48.796;9.796;2023-02-01T03:55:05;4.40;99.90
6174;DHT22;3120;48.796;9.796;2023-02-01T03:57:34;4.40;99.90
6174;DHT22;3120;48.796;9.796;2023-02-01T04:00:23;4.50;99.90
6174;DHT22;3120;48.796;9.796;2023-02-01T04:02:50;4.50;99.90
6174;DHT22;3120;48.796;9.796;2023-02-01T04:05:16;4.50;99.90
6174;DHT22;3120;48.796;9.796;2023-02-01T04:07:42;4.50;99.90
6174;DHT22;3120;48.796;9.796;2023-02-01T04:10:09;4.50;99.90
6174;DHT22;3120;48.796;9.796;2023-02-01T04:12:35;4.50;99.90
6174;DHT22;3120;48.796;9.796;2023-02-01T04:15:01;4.50;99.90
6174;DHT22;3120;48.796;9.796;2023-02-01T04:17:27;4.60;99.90
6174;DHT22;3120;48.796;9.796;2023-02-01T04:19:52;4.60;99.90
6174;DHT22;3120;48.796;9.796;2023-02-01T04:22:18;4.60;99.90
6174;DHT22;3120;48.796;9.796;2023-02-01T04:24:43;4.60;99.90
6174;DHT22;3120;48.796;9.796;2023-02-01T04:27:09;4.60;99.90
6174;DHT22;3120;48.796;9.796;2023-02-01T04:29:34;4.60;99.90
6174;DHT22;3120;48.796;9.796;2023-02-01T04:32:03;4.60;99.90
6174;DHT22;3120;48.796;9.796;2023-02-01T04:34:29;4.60;99.90
6174;DHT22;3120;48.796;9.796;2023-02-01T04:36:55;4.60;99.90
6174;DHT22;3120;48.796;9.796;2023-02-01T04:39:20;4.60;99.90
6174;DHT22;3120;48.796;9.796;2023-02-01T04:41:46;4.70;99.90
6174;DHT22;3120;48.796;9.796;2023-02-01T04:44:17;4.60;99.90
6174;DHT22;3120;48.796;9.796;2023-02-01T04:46:43;4.60;99.90
6174;DHT22;3120;48.796;9.796;2023-02-01T04:49:10;4.70;99.90
6174;DHT22;3120;48.796;9.796;2023-02-01T04:51:36;4.70;99.90
6174;DHT22;3120;48.796;9.796;2023-02-01T04:54:02;4.70;99.90
6174;DHT22;3120;48.796;9.796;2023-02-01T04:56:28;4.70;99.90
6174;DHT22;3120;48.796;9.796;2023-02-01T04:58:54;4.70;99.90
6174;DHT22;3120;48.796;9.796;2023-02-01T05:01:20;4.70;99.90
6174;DHT22;3120;48.796;9.796;2023-02-01T05:03:46;4.70;99.90
6174;DHT22;3120;48.796;9.796;2023-02-01T05:06:11;4.70;99.90
6174;DHT22;3120;48.796;9.796;2023-02-01T05:08:37;4.80;99.90
6174;DHT22;3120;48.796;9.796;2023-02-01T05:11:02;4.70;99.90
6174;DHT22;3120;48.796;9.796;2023-02-01T05:13:29;4.70;99.90
6174;DHT22;3120;48.796;9.796;2023-02-01T05:16:13;4.70;99.90
6174;DHT22;3120;48.796;9.796;2023-02-01T05:18:39;4.80;99.90
6174;DHT22;3120;48.796;9.796;2023-02-01T05:21:05;4.70;99.90
6174;DHT22;3120;48.796;9.796;2023-02-01T05:23:30;4.70;99.90
6174;DHT22;3120;48.796;9.796;2023-02-01T05:26:00;4.70;99.90
6174;DHT22;3120;48.796;9.796;2023-02-01T05:28:27;4.70;99.90
6174;DHT22;3120;48.796;9.796;2023-02-01T05:30:53;4.80;99.90
6174;DHT22;3120;48.796;9.796;2023-02-01T05:33:18;4.80;99.90
6174;DHT22;3120;48.796;9.796;2023-02-01T05:35:44;4.80;99.90
6174;DHT22;3120;48.796;9.796;2023-02-01T05:38:09;4.80;99.90
6174;DHT22;3120;48.796;9.796;2023-02-01T05:40:35;4.80;99.90
6174;DHT22;3120;48.796;9.796;2023-02-01T05:43:00;4.80;99.90
6174;DHT22;3120;48.796;9.796;2023-02-01T05:45:26;4.80;99.90
6174;DHT22;3120;48.796;9.796;2023-02-01T05:47:52;4.80;99.90
6174;DHT22;3120;48.796;9.796;2023-02-01T05:50:17;4.80;99.90
6174;DHT22;3120;48.796;9.796;2023-02-01T05:52:43;4.80;99.90
6174;DHT22;3120;48.796;9.796;2023-02-01T05:55:08;4.80;99.90
6174;DHT22;3120;48.796;9.796;2023-02-01T05:57:34;4.90;99.90
6174;DHT22;3120;48.796;9.796;2023-02-01T06:00:00;4.90;99.90
6174;DHT22;3120;48.796;9.796;2023-02-01T06:05:38;4.90;99.90
6174;DHT22;3120;48.796;9.796;2023-02-01T06:08:04;4.90;99.90
6174;DHT22;3120;48.796;9.796;2023-02-01T06:10:29;4.90;99.90
6174;DHT22;3120;48.796;9.796;2023-02-01T06:12:55;4.90;99.90
6174;DHT22;3120;48.796;9.796;2023-02-01T06:15:20;4.90;99.90
6174;DHT22;3120;48.796;9.796;2023-02-01T06:17:46;4.90;99.90
6174;DHT22;3120;48.796;9.796;2023-02-01T06:20:14;4.80;99.90
6174;DHT22;3120;48.796;9.796;2023-02-01T06:22:40;4.90;99.90
6174;DHT22;3120;48.796;9.796;2023-02-01T06:25:07;4.90;99.90
6174;DHT22;3120;48.796;9.796;2023-02-01T06:27:33;4.90;99.90
6174;DHT22;3120;48.796;9.796;2023-02-01T06:29:59;4.80;99.90
6174;DHT22;3120;48.796;9.796;2023-02-01T06:32:25;4.80;99.90
6174;DHT22;3120;48.796;9.796;2023-02-01T06:34:51;4.90;99.90
6174;DHT22;3120;48.796;9.796;2023-02-01T06:37:18;4.90;99.90
6174;DHT22;3120;48.796;9.796;2023-02-01T06:39:44;4.90;99.90
6174;DHT22;3120;48.796;9.796;2023-02-01T06:42:10;4.90;99.90
6174;DHT22;3120;48.796;9.796;2023-02-01T06:44:35;4.90;99.90
6174;DHT22;3120;48.796;9.796;2023-02-01T06:47:02;4.90;99.90
6174;DHT22;3120;48.796;9.796;2023-02-01T06:49:28;4.90;99.90
6174;DHT22;3120;48.796;9.796;2023-02-01T06:51:54;4.90;99.90
6174;DHT22;3120;48.796;9.796;2023-02-01T06:54:20;4.80;99.90
6174;DHT22;3120;48.796;9.796;2023-02-01T06:56:49;4.90;99.90
6174;DHT22;3120;48.796;9.796;2023-02-01T06:59:14;4.90;99.90
6174;DHT22;3120;48.796;9.796;2023-02-01T07:01:40;4.90;99.90
6174;DHT22;3120;48.796;9.796;2023-02-01T07:04:05;4.80;99.90
6174;DHT22;3120;48.796;9.796;2023-02-01T07:06:31;4.90;99.90
6174;DHT22;3120;48.796;9.796;2023-02-01T07:08:57;4.90;99.90
6174;DHT22;3120;48.796;9.796;2023-02-01T07:11:22;4.90;99.90
6174;DHT22;3120;48.796;9.796;2023-02-01T07:13:48;4.90;99.90
6174;DHT22;3120;48.796;9.796;2023-02-01T07:16:17;4.90;99.90
6174;DHT22;3120;48.796;9.796;2023-02-01T07:18:43;4.90;99.90
6174;DHT22;3120;48.796;9.796;2023-02-01T07:21:15;4.90;99.90
6174;DHT22;3120;48.796;9.796;2023-02-01T07:23:55;4.90;99.90
6174;DHT22;3120;48.796;9.796;2023-02-01T07:26:50;4.90;99.90
6174;DHT22;3120;48.796;9.796;2023-02-01T07:29:17;4.90;99.90
6174;DHT22;3120;48.796;9.796;2023-02-01T07:31:43;5.00;99.90
6174;DHT22;3120;48.796;9.796;2023-02-01T07:34:08;5.00;99.90
6174;DHT22;3120;48.796;9.796;2023-02-01T07:36:34;5.00;99.90
6174;DHT22;3120;48.796;9.796;2023-02-01T07:39:02;5.00;99.90
6174;DHT22;3120;48.796;9.796;2023-02-01T07:41:28;5.00;99.90
6174;DHT22;3120;48.796;9.796;2023-02-01T07:43:54;5.10;99.90
6174;DHT22;3120;48.796;9.796;2023-02-01T07:46:19;5.00;99.90
6174;DHT22;3120;48.796;9.796;2023-02-01T07:48:45;5.00;99.90
6174;DHT22;3120;48.796;9.796;2023-02-01T07:51:13;5.00;99.90
6174;DHT22;3120;48.796;9.796;2023-02-01T07:53:40;5.00;99.90
6174;DHT22;3120;48.796;9.796;2023-02-01T07:56:18;5.50;99.90
6174;DHT22;3120;48.796;9.796;2023-02-01T07:58:56;5.00;99.90
6174;DHT22;3120;48.796;9.796;2023-02-01T08:01:26;4.90;99.90
6174;DHT22;3120;48.796;9.796;2023-02-01T08:06:19;4.90;99.90
6174;DHT22;3120;48.796;9.796;2023-02-01T08:08:46;4.80;99.90
6174;DHT22;3120;48.796;9.796;2023-02-01T08:11:13;4.80;99.90
6174;DHT22;3120;48.796;9.796;2023-02-01T08:13:39;4.70;99.90
6174;DHT22;3120;48.796;9.796;2023-02-01T08:16:07;4.70;99.90
6174;DHT22;3120;48.796;9.796;2023-02-01T08:18:34;4.70;99.90
6174;DHT22;3120;48.796;9.796;2023-02-01T08:23:52;4.60;99.90
6174;DHT22;3120;48.796;9.796;2023-02-01T08:28:52;4.60;99.90
6174;DHT22;3120;48.796;9.796;2023-02-01T08:31:22;4.70;99.90
6174;DHT22;3120;48.796;9.796;2023-02-01T08:33:56;4.70;99.90
6174;DHT22;3120;48.796;9.796;2023-02-01T08:36:23;4.70;99.90
6174;DHT22;3120;48.796;9.796;2023-02-01T08:38:53;4.70;99.90
6174;DHT22;3120;48.796;9.796;2023-02-01T08:44:41;4.70;99.90
6174;DHT22;3120;48.796;9.796;2023-02-01T08:47:06;4.80;99.90
6174;DHT22;3120;48.796;9.796;2023-02-01T08:49:32;4.80;99.90
6174;DHT22;3120;48.796;9.796;2023-02-01T08:51:58;4.80;99.90
6174;DHT22;3120;48.796;9.796;2023-02-01T08:54:23;4.90;99.90
6174;DHT22;3120;48.796;9.796;2023-02-01T08:56:49;4.90;99.90
6174;DHT22;3120;48.796;9.796;2023-02-01T08:59:14;4.80;99.90
6174;DHT22;3120;48.796;9.796;2023-02-01T09:01:40;4.90;99.90
6174;DHT22;3120;48.796;9.796;2023-02-01T09:04:06;4.90;99.90
6174;DHT22;3120;48.796;9.796;2023-02-01T09:06:31;5.00;99.90
6174;DHT22;3120;48.796;9.796;2023-02-01T09:08:57;5.00;99.90
6174;DHT22;3120;48.796;9.796;2023-02-01T09:11:22;5.10;99.90
6174;DHT22;3120;48.796;9.796;2023-02-01T09:13:48;5.10;99.90
6174;DHT22;3120;48.796;9.796;2023-02-01T09:16:14;7.00;99.90
6174;DHT22;3120;48.796;9.796;2023-02-01T09:18:40;6.60;99.90
6174;DHT22;3120;48.796;9.796;2023-02-01T09:21:07;5.30;99.90
6174;DHT22;3120;48.796;9.796;2023-02-01T09:23:33;5.30;99.90
6174;DHT22;3120;48.796;9.796;2023-02-01T09:26:00;5.30;99.90
6174;DHT22;3120;48.796;9.796;2023-02-01T09:28:26;5.30;99.90
6174;DHT22;3120;48.796;9.796;2023-02-01T09:30:56;5.40;96.10
6174;DHT22;3120;48.796;9.796;2023-02-01T09:33:22;5.40;82.50
6174;DHT22;3120;48.796;9.796;2023-02-01T09:35:49;5.40;71.30
6174;DHT22;3120;48.796;9.796;2023-02-01T09:38:14;5.50;67.80
6174;DHT22;3120;48.796;9.796;2023-02-01T09:40:45;5.50;80.70
6174;DHT22;3120;48.796;9.796;2023-02-01T09:48:35;5.60;55.70
6174;DHT22;3120;48.796;9.796;2023-02-01T09:51:06;5.60;99.90
6174;DHT22;3120;48.796;9.796;2023-02-01T09:53:42;5.50;99.90
6174;DHT22;3120;48.796;9.796;2023-02-01T09:56:27;5.40;99.90
6174;DHT22;3120;48.796;9.796;2023-02-01T10:01:28;5.80;99.90
6174;DHT22;3120;48.796;9.796;2023-02-01T10:04:13;5.10;99.90
6174;DHT22;3120;48.796;9.796;2023-02-01T10:09:50;5.00;99.90
6174;DHT22;3120;48.796;9.796;2023-02-01T10:12:59;5.00;99.90
6174;DHT22;3120;48.796;9.796;2023-02-01T10:15:43;5.00;99.90
6174;DHT22;3120;48.796;9.796;2023-02-01T10:24:02;5.00;99.90
6174;DHT22;3120;48.796;9.796;2023-02-01T10:26:37;5.00;99.90
6174;DHT22;3120;48.796;9.796;2023-02-01T10:29:12;5.00;99.90
6174;DHT22;3120;48.796;9.796;2023-02-01T10:31:40;5.00;99.90
6174;DHT22;3120;48.796;9.796;2023-02-01T10:34:41;5.00;99.90
6174;DHT22;3120;48.796;9.796;2023-02-01T10:37:26;5.00;99.90
6174;DHT22;3120;48.796;9.796;2023-02-01T10:39:55;5.10;99.90
6174;DHT22;3120;48.796;9.796;2023-02-01T10:42:25;5.10;99.90
6174;DHT22;3120;48.796;9.796;2023-02-01T10:44:52;5.20;99.90
6174;DHT22;3120;48.796;9.796;2023-02-01T10:47:18;5.30;99.90
6174;DHT22;3120;48.796;9.796;2023-02-01T10:50:14;5.40;99.90
6174;DHT22;3120;48.796;9.796;2023-02-01T10:53:07;5.50;99.90
6174;DHT22;3120;48.796;9.796;2023-02-01T10:56:09;5.60;73.00
6174;DHT22;3120;48.796;9.796;2023-02-01T10:58:35;7.10;69.60
6174;DHT22;3120;48.796;9.796;2023-02-01T11:01:15;5.60;80.70
6174;DHT22;3120;48.796;9.796;2023-02-01T11:03:51;5.60;74.80
6174;DHT22;3120;48.796;9.796;2023-02-01T11:06:30;5.60;61.80
6174;DHT22;3120;48.796;9.796;2023-02-01T11:09:24;5.60;55.70
6174;DHT22;3120;48.796;9.796;2023-02-01T11:14:26;5.60;59.70
6174;DHT22;3120;48.796;9.796;2023-02-01T11:22:57;6.30;13.50
6174;DHT22;3120;48.796;9.796;2023-02-01T11:25:24;5.60;19.70
6174;DHT22;3120;48.796;9.796;2023-02-01T11:27:51;5.60;1.00
6174;DHT22;3120;48.796;9.796;2023-02-01T11:30:28;5.60;1.00
6174;DHT22;3120;48.796;9.796;2023-02-01T11:32:55;5.60;1.00
6174;DHT22;3120;48.796;9.796;2023-02-01T11:35:21;5.60;1.00
6174;DHT22;3120;48.796;9.796;2023-02-01T11:37:55;5.50;4.00
6174;DHT22;3120;48.796;9.796;2023-02-01T11:40:38;5.50;1.00
6174;DHT22;3120;48.796;9.796;2023-02-01T11:43:14;5.60;1.00
6174;DHT22;3120;48.796;9.796;2023-02-01T11:45:41;5.50;1.00
6174;DHT22;3120;48.796;9.796;2023-02-01T11:48:09;5.60;1.00
6174;DHT22;3120;48.796;9.796;2023-02-01T11:55:49;5.60;1.00
6174;DHT22;3120;48.796;9.796;2023-02-01T12:12:17;5.80;1.00
6174;DHT22;3120;48.796;9.796;2023-02-01T12:18:06;5.80;1.00
6174;DHT22;3120;48.796;9.796;2023-02-01T12:26:47;5.80;1.00
6174;DHT22;3120;48.796;9.796;2023-02-01T12:32:27;5.80;1.00
6174;DHT22;3120;48.796;9.796;2023-02-01T12:37:43;5.80;1.00
6174;DHT22;3120;48.796;9.796;2023-02-01T12:42:57;5.80;1.00
6174;DHT22;3120;48.796;9.796;2023-02-01T12:45:32;5.90;1.00
6174;DHT22;3120;48.796;9.796;2023-02-01T12:48:02;5.90;1.00
6174;DHT22;3120;48.796;9.796;2023-02-01T12:50:49;5.80;1.00
6174;DHT22;3120;48.796;9.796;2023-02-01T12:53:21;5.90;1.00
6174;DHT22;3120;48.796;9.796;2023-02-01T12:55:54;7.00;1.00
6174;DHT22;3120;48.796;9.796;2023-02-01T12:58:30;5.90;1.00
6174;DHT22;3120;48.796;9.796;2023-02-01T13:01:03;5.80;1.00
6174;DHT22;3120;48.796;9.796;2023-02-01T13:03:41;5.80;1.00
6174;DHT22;3120;48.796;9.796;2023-02-01T13:10:12;5.90;99.90
6174;DHT22;3120;48.796;9.796;2023-02-01T13:12:45;5.90;99.90
6174;DHT22;3120;48.796;9.796;2023-02-01T13:15:17;6.00;99.90
6174;DHT22;3120;48.796;9.796;2023-02-01T13:17:46;5.90;99.90
6174;DHT22;3120;48.796;9.796;2023-02-01T13:20:45;6.00;1.00
6174;DHT22;3120;48.796;9.796;2023-02-01T13:23:28;6.00;99.90
6174;DHT22;3120;48.796;9.796;2023-02-01T13:25:55;6.00;1.00
6174;DHT22;3120;48.796;9.796;2023-02-01T13:28:45;6.00;52.90
6174;DHT22;3120;48.796;9.796;2023-02-01T13:37:08;6.00;95.50
6174;DHT22;3120;48.796;9.796;2023-02-01T13:42:30;6.00;99.90
6174;DHT22;3120;48.796;9.796;2023-02-01T13:45:03;5.90;99.90
6174;DHT22;3120;48.796;9.796;2023-02-01T13:47:32;5.90;14.20
6174;DHT22;3120;48.796;9.796;2023-02-01T13:50:49;5.90;1.00
6174;DHT22;3120;48.796;9.796;2023-02-01T13:55:38;5.80;1.00
6174;DHT22;3120;48.796;9.796;2023-02-01T13:58:20;5.80;99.90
6174;DHT22;3120;48.796;9.796;2023-02-01T14:00:47;5.80;94.00
6174;DHT22;3120;48.796;9.796;2023-02-01T14:03:21;5.80;1.00
6174;DHT22;3120;48.796;9.796;2023-02-01T14:08:39;5.90;1.00
6174;DHT22;3120;48.796;9.796;2023-02-01T14:11:05;5.90;99.90
6174;DHT22;3120;48.796;9.796;2023-02-01T14:32:03;5.80;1.00
6174;DHT22;3120;48.796;9.796;2023-02-01T14:39:57;6.80;99.90
6174;DHT22;3120;48.796;9.796;2023-02-01T15:01:22;5.80;99.90
6174;DHT22;3120;48.796;9.796;2023-02-01T15:06:43;5.80;99.90
6174;DHT22;3120;48.796;9.796;2023-02-01T15:14:39;5.70;99.90
6174;DHT22;3120;48.796;9.796;2023-02-01T15:17:18;5.70;1.00
6174;DHT22;3120;48.796;9.796;2023-02-01T15:19:59;6.40;1.70
6174;DHT22;3120;48.796;9.796;2023-02-01T15:22:28;5.80;99.90
6174;DHT22;3120;48.796;9.796;2023-02-01T15:24:58;5.80;1.00
6174;DHT22;3120;48.796;9.796;2023-02-01T15:27:26;5.70;99.90
6174;DHT22;3120;48.796;9.796;2023-02-01T15:29:52;5.70;96.10
6174;DHT22;3120;48.796;9.796;2023-02-01T15:34:59;5.80;99.90
6174;DHT22;3120;48.796;9.796;2023-02-01T15:37:26;5.80;99.90
6174;DHT22;3120;48.796;9.796;2023-02-01T15:42:48;5.80;99.90
6174;DHT22;3120;48.796;9.796;2023-02-01T15:45:33;7.30;99.90
6174;DHT22;3120;48.796;9.796;2023-02-01T15:47:59;5.90;99.90
6174;DHT22;3120;48.796;9.796;2023-02-01T15:50:33;6.00;1.00
6174;DHT22;3120;48.796;9.796;2023-02-01T15:52:58;6.00;1.00
6174;DHT22;3120;48.796;9.796;2023-02-01T15:55:37;6.00;99.90
6174;DHT22;3120;48.796;9.796;2023-02-01T15:58:23;6.60;1.00
6174;DHT22;3120;48.796;9.796;2023-02-01T16:00:59;7.70;1.00
6174;DHT22;3120;48.796;9.796;2023-02-01T16:03:37;6.00;1.00
6174;DHT22;3120;48.796;9.796;2023-02-01T16:06:10;6.00;99.90
6174;DHT22;3120;48.796;9.796;2023-02-01T16:08:37;7.10;14.60
6174;DHT22;3120;48.796;9.796;2023-02-01T16:11:23;6.10;1.00
6174;DHT22;3120;48.796;9.796;2023-02-01T16:13:49;6.10;75.60
6174;DHT22;3120;48.796;9.796;2023-02-01T16:16:15;6.10;99.90
6174;DHT22;3120;48.796;9.796;2023-02-01T16:18:41;6.10;1.00
6174;DHT22;3120;48.796;9.796;2023-02-01T16:21:08;6.00;99.90
6174;DHT22;3120;48.796;9.796;2023-02-01T16:23:35;6.00;1.00
6174;DHT22;3120;48.796;9.796;2023-02-01T16:26:01;6.00;1.00
6174;DHT22;3120;48.796;9.796;2023-02-01T16:28:27;6.00;99.90
6174;DHT22;3120;48.796;9.796;2023-02-01T16:30:52;6.00;1.00
6174;DHT22;3120;48.796;9.796;2023-02-01T16:33:19;7.30;1.00
6174;DHT22;3120;48.796;9.796;2023-02-01T16:35:47;5.90;99.90
6174;DHT22;3120;48.796;9.796;2023-02-01T16:38:15;5.90;99.90
6174;DHT22;3120;48.796;9.796;2023-02-01T16:40:44;6.60;36.20
6174;DHT22;3120;48.796;9.796;2023-02-01T16:43:28;5.90;99.90
6174;DHT22;3120;48.796;9.796;2023-02-01T16:45:59;5.80;1.00
6174;DHT22;3120;48.796;9.796;2023-02-01T16:50:55;7.00;99.90
6174;DHT22;3120;48.796;9.796;2023-02-01T16:53:23;6.40;1.00
6174;DHT22;3120;48.796;9.796;2023-02-01T16:55:49;5.70;1.00
6174;DHT22;3120;48.796;9.796;2023-02-01T16:58:19;6.70;1.00
6174;DHT22;3120;48.796;9.796;2023-02-01T17:00:46;5.70;99.90
6174;DHT22;3120;48.796;9.796;2023-02-01T17:03:13;6.80;1.00
6174;DHT22;3120;48.796;9.796;2023-02-01T17:05:47;5.60;99.90
6174;DHT22;3120;48.796;9.796;2023-02-01T17:08:17;5.60;1.00
6174;DHT22;3120;48.796;9.796;2023-02-01T17:10:44;5.70;1.00
6174;DHT22;3120;48.796;9.796;2023-02-01T17:13:15;5.60;1.00
6174;DHT22;3120;48.796;9.796;2023-02-01T17:15:49;5.60;1.00
6174;DHT22;3120;48.796;9.796;2023-02-01T17:18:17;5.60;1.00
6174;DHT22;3120;48.796;9.796;2023-02-01T17:20:47;5.60;1.00
6174;DHT22;3120;48.796;9.796;2023-02-01T17:23:15;5.60;1.00
6174;DHT22;3120;48.796;9.796;2023-02-01T17:25:41;5.60;99.90
6174;DHT22;3120;48.796;9.796;2023-02-01T17:28:07;5.60;62.00
6174;DHT22;3120;48.796;9.796;2023-02-01T17:30:58;5.60;1.00
6174;DHT22;3120;48.796;9.796;2023-02-01T17:33:26;5.60;1.00
6174;DHT22;3120;48.796;9.796;2023-02-01T17:35:54;5.60;1.00
6174;DHT22;3120;48.796;9.796;2023-02-01T17:38:20;6.10;93.70
6174;DHT22;3120;48.796;9.796;2023-02-01T17:40:46;6.90;1.00
6174;DHT22;3120;48.796;9.796;2023-02-01T17:43:17;6.20;1.00
6174;DHT22;3120;48.796;9.796;2023-02-01T17:48:31;5.60;1.00
6174;DHT22;3120;48.796;9.796;2023-02-01T17:50:57;5.70;99.90
6174;DHT22;3120;48.796;9.796;2023-02-01T17:53:27;5.70;1.00
6174;DHT22;3120;48.796;9.796;2023-02-01T17:55:53;5.70;99.90
6174;DHT22;3120;48.796;9.796;2023-02-01T17:58:21;5.60;99.90
6174;DHT22;3120;48.796;9.796;2023-02-01T18:00:48;5.70;99.90
6174;DHT22;3120;48.796;9.796;2023-02-01T18:03:26;5.70;99.90
6174;DHT22;3120;48.796;9.796;2023-02-01T18:05:54;5.70;1.00
6174;DHT22;3120;48.796;9.796;2023-02-01T18:08:21;5.70;1.00
6174;DHT22;3120;48.796;9.796;2023-02-01T18:10:51;5.60;1.00
6174;DHT22;3120;48.796;9.796;2023-02-01T18:13:19;5.60;1.00
6174;DHT22;3120;48.796;9.796;2023-02-01T18:15:45;5.60;1.00
6174;DHT22;3120;48.796;9.796;2023-02-01T18:18:11;5.60;1.00
6174;DHT22;3120;48.796;9.796;2023-02-01T18:20:39;5.60;1.00
6174;DHT22;3120;48.796;9.796;2023-02-01T18:23:15;6.50;99.90
6174;DHT22;3120;48.796;9.796;2023-02-01T18:25:42;6.20;1.00
6174;DHT22;3120;48.796;9.796;2023-02-01T18:28:08;5.50;1.00
6174;DHT22;3120;48.796;9.796;2023-02-01T18:30:34;5.60;1.00
6174;DHT22;3120;48.796;9.796;2023-02-01T18:33:00;5.60;28.30
6174;DHT22;3120;48.796;9.796;2023-02-01T18:35:28;5.50;99.90
6174;DHT22;3120;48.796;9.796;2023-02-01T18:37:54;5.50;99.90
6174;DHT22;3120;48.796;9.796;2023-02-01T18:40:35;5.50;99.90
6174;DHT22;3120;48.796;9.796;2023-02-01T18:43:03;5.40;99.90
6174;DHT22;3120;48.796;9.796;2023-02-01T18:45:40;5.50;99.90
6174;DHT22;3120;48.796;9.796;2023-02-01T18:48:07;5.50;99.90
6174;DHT22;3120;48.796;9.796;2023-02-01T18:50:35;5.50;99.90
6174;DHT22;3120;48.796;9.796;2023-02-01T18:53:07;6.00;99.90
6174;DHT22;3120;48.796;9.796;2023-02-01T18:55:34;5.50;99.90
6174;DHT22;3120;48.796;9.796;2023-02-01T18:58:03;6.90;99.90
6174;DHT22;3120;48.796;9.796;2023-02-01T19:00:29;6.20;99.90
6174;DHT22;3120;48.796;9.796;2023-02-01T19:02:55;5.40;99.90
6174;DHT22;3120;48.796;9.796;2023-02-01T19:05:21;5.40;99.90
6174;DHT22;3120;48.796;9.796;2023-02-01T19:07:49;5.40;99.90
6174;DHT22;3120;48.796;9.796;2023-02-01T19:10:20;6.20;99.90
6174;DHT22;3120;48.796;9.796;2023-02-01T19:12:49;5.40;99.90
6174;DHT22;3120;48.796;9.796;2023-02-01T19:15:16;5.40;99.90
6174;DHT22;3120;48.796;9.796;2023-02-01T19:17:47;5.40;99.90
6174;DHT22;3120;48.796;9.796;2023-02-01T19:20:18;5.40;99.90
6174;DHT22;3120;48.796;9.796;2023-02-01T19:22:45;5.40;99.90
6174;DHT22;3120;48.796;9.796;2023-02-01T19:25:14;5.40;99.90
6174;DHT22;3120;48.796;9.796;2023-02-01T19:27:40;5.60;99.90
6174;DHT22;3120;48.796;9.796;2023-02-01T19:30:07;6.60;1.00
6174;DHT22;3120;48.796;9.796;2023-02-01T19:32:33;5.30;1.00
6174;DHT22;3120;48.796;9.796;2023-02-01T19:34:58;7.20;99.90
6174;DHT22;3120;48.796;9.796;2023-02-01T19:37:24;5.30;99.90
6174;DHT22;3120;48.796;9.796;2023-02-01T19:39:49;5.30;1.00
6174;DHT22;3120;48.796;9.796;2023-02-01T19:42:15;6.80;99.90
6174;DHT22;3120;48.796;9.796;2023-02-01T19:44:41;5.30;99.90
6174;DHT22;3120;48.796;9.796;2023-02-01T19:47:09;5.30;1.00
6174;DHT22;3120;48.796;9.796;2023-02-01T19:49:35;5.30;99.90
6174;DHT22;3120;48.796;9.796;2023-02-01T19:52:01;5.30;1.00
6174;DHT22;3120;48.796;9.796;2023-02-01T19:54:26;6.50;99.90